sensor_id;sensor_type;location;lat;lon;timestamp;temperature;humidity
20158;DHT22;10239;56.820;24.416;2023-05-10T00:01:29;6.50;99.90
20158;DHT22;10239;56.820;24.416;2023-05-10T00:03:57;6.40;99.90
20158;DHT22;10239;56.820;24.416;2023-05-10T00:06:25;6.40;99.90
20158;DHT22;10239;56.820;24.416;2023-05-10T00:08:53;6.40;99.90
20158;DHT22;10239;56.820;24.416;2023-05-10T00:11:20;6.40;99.90
20158;DHT22;10239;56.820;24.416;2023-05-10T00:13:49;6.40;99.90
20158;DHT22;10239;56.820;24.416;2023-05-10T00:16:16;6.50;99.90
20158;DHT22;10239;56.820;24.416;2023-05-10T00:18:44;6.50;99.90
20158;DHT22;10239;56.820;24.416;2023-05-10T00:21:12;6.60;99.90
20158;DHT22;10239;56.820;24.416;2023-05-10T00:23:39;6.50;99.90
20158;DHT22;10239;56.820;24.416;2023-05-10T00:26:07;6.40;99.90
20158;DHT22;10239;56.820;24.416;2023-05-10T00:28:36;6.30;99.90
20158;DHT22;10239;56.820;24.416;2023-05-10T00:31:04;6.40;99.90
20158;DHT22;10239;56.820;24.416;2023-05-10T00:33:32;6.50;99.90
20158;DHT22;10239;56.820;24.416;2023-05-10T00:35:59;6.50;99.90
20158;DHT22;10239;56.820;24.416;2023-05-10T00:38:27;6.50;99.90
20158;DHT22;10239;56.820;24.416;2023-05-10T00:40:54;6.40;99.90
20158;DHT22;10239;56.820;24.416;2023-05-10T00:43:27;6.40;99.90
20158;DHT22;10239;56.820;24.416;2023-05-10T00:45:55;6.40;99.90
20158;DHT22;10239;56.820;24.416;2023-05-10T00:48:23;6.30;99.90
20158;DHT22;10239;56.820;24.416;2023-05-10T00:50:51;5.90;99.90
20158;DHT22;10239;56.820;24.416;2023-05-10T00:53:19;6.00;99.90
20158;DHT22;10239;56.820;24.416;2023-05-10T00:55:47;6.10;99.90
20158;DHT22;10239;56.820;24.416;2023-05-10T00:58:15;6.10;99.90
20158;DHT22;10239;56.820;24.416;2023-05-10T01:00:43;6.10;99.90
20158;DHT22;10239;56.820;24.416;2023-05-10T01:03:12;6.10;99.90
20158;DHT22;10239;56.820;24.416;2023-05-10T01:05:40;6.20;99.90
20158;DHT22;10239;56.820;24.416;2023-05-10T01:08:08;6.20;99.90
20158;DHT22;10239;56.820;24.416;2023-05-10T01:10:36;6.10;99.90
20158;DHT22;10239;56.820;24.416;2023-05-10T01:13:03;6.10;99.90
20158;DHT22;10239;56.820;24.416;2023-05-10T01:15:31;6.20;99.90
20158;DHT22;10239;56.820;24.416;2023-05-10T01:17:59;6.20;99.90
20158;DHT22;10239;56.820;24.416;2023-05-10T01:20:35;6.20;99.90
20158;DHT22;10239;56.820;24.416;2023-05-10T01:23:12;6.20;99.90
20158;DHT22;10239;56.820;24.416;2023-05-10T01:34:15;6.30;99.90
20158;DHT22;10239;56.820;24.416;2023-05-10T01:37:02;6.30;99.90
20158;DHT22;10239;56.820;24.416;2023-05-10T01:40:10;6.30;99.90
20158;DHT22;10239;56.820;24.416;2023-05-10T01:42:48;6.20;99.90
20158;DHT22;10239;56.820;24.416;2023-05-10T01:45:27;6.30;99.90
20158;DHT22;10239;56.820;24.416;2023-05-10T01:48:11;6.20;99.90
20158;DHT22;10239;56.820;24.416;2023-05-10T01:50:43;6.20;99.90
20158;DHT22;10239;56.820;24.416;2023-05-10T01:53:13;6.10;99.90
20158;DHT22;10239;56.820;24.416;2023-05-10T01:55:51;6.10;99.90
20158;DHT22;10239;56.820;24.416;2023-05-10T01:58:31;5.90;99.90
20158;DHT22;10239;56.820;24.416;2023-05-10T02:01:02;5.90;99.90
20158;DHT22;10239;56.820;24.416;2023-05-10T02:03:32;5.90;99.90
20158;DHT22;10239;56.820;24.416;2023-05-10T02:06:02;5.90;99.90
20158;DHT22;10239;56.820;24.416;2023-05-10T02:08:31;5.90;99.90
20158;DHT22;10239;56.820;24.416;2023-05-10T02:11:01;5.80;99.90
20158;DHT22;10239;56.820;24.416;2023-05-10T02:13:29;5.50;99.90
20158;DHT22;10239;56.820;24.416;2023-05-10T02:15:59;5.60;99.90
20158;DHT22;10239;56.820;24.416;2023-05-10T02:18:29;5.50;99.90
20158;DHT22;10239;56.820;24.416;2023-05-10T02:21:00;5.30;99.90
20158;DHT22;10239;56.820;24.416;2023-05-10T02:23:28;5.30;99.90
20158;DHT22;10239;56.820;24.416;2023-05-10T02:25:57;5.50;99.90
20158;DHT22;10239;56.820;24.416;2023-05-10T02:28:27;5.50;99.90
20158;DHT22;10239;56.820;24.416;2023-05-10T02:30:55;5.40;99.90
20158;DHT22;10239;56.820;24.416;2023-05-10T02:33:24;5.50;99.90
20158;DHT22;10239;56.820;24.416;2023-05-10T02:35:52;5.60;99.90
20158;DHT22;10239;56.820;24.416;2023-05-10T02:38:21;5.40;99.90
20158;DHT22;10239;56.820;24.416;2023-05-10T02:40:50;5.40;99.90
20158;DHT22;10239;56.820;24.416;2023-05-10T02:43:18;5.40;99.90
20158;DHT22;10239;56.820;24.416;2023-05-10T02:45:48;5.50;99.90
20158;DHT22;10239;56.820;24.416;2023-05-10T02:48:16;5.50;99.90
20158;DHT22;10239;56.820;24.416;2023-05-10T02:50:44;5.50;99.90
20158;DHT22;10239;56.820;24.416;2023-05-10T02:53:20;5.60;99.90
20158;DHT22;10239;56.820;24.416;2023-05-10T02:55:52;5.60;99.90
20158;DHT22;10239;56.820;24.416;2023-05-10T02:58:19;5.70;99.90
20158;DHT22;10239;56.820;24.416;2023-05-10T03:00:47;5.80;99.90
20158;DHT22;10239;56.820;24.416;2023-05-10T03:03:15;5.90;99.90
20158;DHT22;10239;56.820;24.416;2023-05-10T03:05:42;6.00;99.90
20158;DHT22;10239;56.820;24.416;2023-05-10T03:08:10;6.10;99.90
20158;DHT22;10239;56.820;24.416;2023-05-10T03:16:29;6.50;99.90
20158;DHT22;10239;56.820;24.416;2023-05-10T03:19:16;6.60;99.90
20158;DHT22;10239;56.820;24.416;2023-05-10T03:21:49;6.60;99.90
20158;DHT22;10239;56.820;24.416;2023-05-10T03:24:21;6.60;99.90
20158;DHT22;10239;56.820;24.416;2023-05-10T03:26:51;6.90;99.90
20158;DHT22;10239;56.820;24.416;2023-05-10T03:29:22;7.00;99.90
20158;DHT22;10239;56.820;24.416;2023-05-10T03:31:49;7.10;99.90
20158;DHT22;10239;56.820;24.416;2023-05-10T03:34:23;7.30;99.90
20158;DHT22;10239;56.820;24.416;2023-05-10T03:36:52;7.40;99.90
20158;DHT22;10239;56.820;24.416;2023-05-10T03:39:19;7.40;99.90
20158;DHT22;10239;56.820;24.416;2023-05-10T03:41:52;7.40;99.90
20158;DHT22;10239;56.820;24.416;2023-05-10T03:44:20;7.30;99.90
20158;DHT22;10239;56.820;24.416;2023-05-10T03:46:47;7.60;99.90
20158;DHT22;10239;56.820;24.416;2023-05-10T03:49:15;7.80;99.90
20158;DHT22;10239;56.820;24.416;2023-05-10T03:51:43;7.80;99.90
20158;DHT22;10239;56.820;24.416;2023-05-10T03:54:10;7.90;99.90
20158;DHT22;10239;56.820;24.416;2023-05-10T03:56:38;8.30;99.90
20158;DHT22;10239;56.820;24.416;2023-05-10T03:59:05;8.30;99.90
20158;DHT22;10239;56.820;24.416;2023-05-10T04:01:35;8.40;99.90
20158;DHT22;10239;56.820;24.416;2023-05-10T04:04:02;8.50;99.90
20158;DHT22;10239;56.820;24.416;2023-05-10T04:06:31;8.60;99.90
20158;DHT22;10239;56.820;24.416;2023-05-10T04:08:59;8.90;99.90
20158;DHT22;10239;56.820;24.416;2023-05-10T04:11:28;9.40;99.90
20158;DHT22;10239;56.820;24.416;2023-05-10T04:13:56;9.40;99.90
20158;DHT22;10239;56.820;24.416;2023-05-10T04:16:23;9.30;99.90
20158;DHT22;10239;56.820;24.416;2023-05-10T04:18:51;9.30;99.90
20158;DHT22;10239;56.820;24.416;2023-05-10T04:21:18;9.50;99.90
20158;DHT22;10239;56.820;24.416;2023-05-10T04:23:46;9.60;99.90
20158;DHT22;10239;56.820;24.416;2023-05-10T04:26:15;9.80;99.90
20158;DHT22;10239;56.820;24.416;2023-05-10T04:28:43;10.00;99.90
20158;DHT22;10239;56.820;24.416;2023-05-10T04:31:11;10.30;99.90
20158;DHT22;10239;56.820;24.416;2023-05-10T04:33:38;10.30;99.90
20158;DHT22;10239;56.820;24.416;2023-05-10T04:36:08;10.40;99.90
20158;DHT22;10239;56.820;24.416;2023-05-10T04:38:36;10.60;99.90
20158;DHT22;10239;56.820;24.416;2023-05-10T04:41:05;10.90;99.90
20158;DHT22;10239;56.820;24.416;2023-05-10T04:43:33;11.00;99.90
20158;DHT22;10239;56.820;24.416;2023-05-10T04:46:00;11.10;99.90
20158;DHT22;10239;56.820;24.416;2023-05-10T04:48:28;11.40;99.90
20158;DHT22;10239;56.820;24.416;2023-05-10T04:50:56;11.70;99.90
20158;DHT22;10239;56.820;24.416;2023-05-10T04:53:24;12.00;99.90
20158;DHT22;10239;56.820;24.416;2023-05-10T04:55:51;13.50;99.90
20158;DHT22;10239;56.820;24.416;2023-05-10T04:58:19;15.30;99.90
20158;DHT22;10239;56.820;24.416;2023-05-10T05:00:46;16.80;99.90
20158;DHT22;10239;56.820;24.416;2023-05-10T05:03:14;17.50;97.70
20158;DHT22;10239;56.820;24.416;2023-05-10T05:05:43;18.70;98.10
20158;DHT22;10239;56.820;24.416;2023-05-10T05:08:10;19.20;92.60
20158;DHT22;10239;56.820;24.416;2023-05-10T05:10:38;19.40;91.10
20158;DHT22;10239;56.820;24.416;2023-05-10T05:13:05;19.80;89.40
20158;DHT22;10239;56.820;24.416;2023-05-10T05:15:33;20.80;88.10
20158;DHT22;10239;56.820;24.416;2023-05-10T05:18:01;21.50;85.90
20158;DHT22;10239;56.820;24.416;2023-05-10T05:20:32;22.10;82.70
20158;DHT22;10239;56.820;24.416;2023-05-10T05:23:00;22.40;79.80
20158;DHT22;10239;56.820;24.416;2023-05-10T05:25:28;23.70;77.10
20158;DHT22;10239;56.820;24.416;2023-05-10T05:27:55;24.00;73.50
20158;DHT22;10239;56.820;24.416;2023-05-10T05:30:23;24.50;70.90
20158;DHT22;10239;56.820;24.416;2023-05-10T05:32:51;25.30;68.30
20158;DHT22;10239;56.820;24.416;2023-05-10T05:35:18;25.50;69.20
20158;DHT22;10239;56.820;24.416;2023-05-10T05:37:46;26.30;66.30
20158;DHT22;10239;56.820;24.416;2023-05-10T05:40:13;26.70;63.30
20158;DHT22;10239;56.820;24.416;2023-05-10T05:42:41;28.10;60.90
20158;DHT22;10239;56.820;24.416;2023-05-10T05:45:09;28.40;58.60
20158;DHT22;10239;56.820;24.416;2023-05-10T05:47:40;27.80;58.50
20158;DHT22;10239;56.820;24.416;2023-05-10T05:50:08;27.00;57.50
20158;DHT22;10239;56.820;24.416;2023-05-10T05:52:36;27.10;58.30
20158;DHT22;10239;56.820;24.416;2023-05-10T05:55:04;28.10;57.60
20158;DHT22;10239;56.820;24.416;2023-05-10T05:57:32;28.80;55.80
20158;DHT22;10239;56.820;24.416;2023-05-10T06:00:00;27.90;54.00
20158;DHT22;10239;56.820;24.416;2023-05-10T06:02:38;29.40;54.30
20158;DHT22;10239;56.820;24.416;2023-05-10T06:05:06;29.70;52.20
20158;DHT22;10239;56.820;24.416;2023-05-10T06:07:35;30.20;51.20
20158;DHT22;10239;56.820;24.416;2023-05-10T06:10:03;30.40;53.00
20158;DHT22;10239;56.820;24.416;2023-05-10T06:12:30;30.20;49.70
20158;DHT22;10239;56.820;24.416;2023-05-10T06:14:58;31.30;51.10
20158;DHT22;10239;56.820;24.416;2023-05-10T06:17:26;31.90;49.40
20158;DHT22;10239;56.820;24.416;2023-05-10T06:19:53;32.30;46.70
20158;DHT22;10239;56.820;24.416;2023-05-10T06:22:21;32.20;46.30
20158;DHT22;10239;56.820;24.416;2023-05-10T06:24:50;32.30;48.90
20158;DHT22;10239;56.820;24.416;2023-05-10T06:27:17;32.60;45.90
20158;DHT22;10239;56.820;24.416;2023-05-10T06:29:45;32.70;45.20
20158;DHT22;10239;56.820;24.416;2023-05-10T06:32:15;33.10;42.10
20158;DHT22;10239;56.820;24.416;2023-05-10T06:34:43;33.60;43.00
20158;DHT22;10239;56.820;24.416;2023-05-10T06:37:12;33.60;41.10
20158;DHT22;10239;56.820;24.416;2023-05-10T06:39:39;33.20;39.20
20158;DHT22;10239;56.820;24.416;2023-05-10T06:42:07;32.60;38.80
20158;DHT22;10239;56.820;24.416;2023-05-10T06:44:35;32.80;39.60
20158;DHT22;10239;56.820;24.416;2023-05-10T06:47:02;34.10;42.70
20158;DHT22;10239;56.820;24.416;2023-05-10T06:49:30;34.20;41.80
20158;DHT22;10239;56.820;24.416;2023-05-10T06:51:58;34.30;38.70
20158;DHT22;10239;56.820;24.416;2023-05-10T06:54:25;34.30;39.30
20158;DHT22;10239;56.820;24.416;2023-05-10T06:56:53;34.00;38.50
20158;DHT22;10239;56.820;24.416;2023-05-10T06:59:21;34.20;39.80
20158;DHT22;10239;56.820;24.416;2023-05-10T07:01:48;34.30;43.10
20158;DHT22;10239;56.820;24.416;2023-05-10T07:04:16;34.60;41.50
20158;DHT22;10239;56.820;24.416;2023-05-10T07:06:45;34.70;40.10
20158;DHT22;10239;56.820;24.416;2023-05-10T07:09:13;34.40;38.00
20158;DHT22;10239;56.820;24.416;2023-05-10T07:11:41;34.20;36.20
20158;DHT22;10239;56.820;24.416;2023-05-10T07:14:09;34.20;35.70
20158;DHT22;10239;56.820;24.416;2023-05-10T07:16:37;34.20;37.20
20158;DHT22;10239;56.820;24.416;2023-05-10T07:19:04;34.10;39.90
20158;DHT22;10239;56.820;24.416;2023-05-10T07:21:32;34.80;37.20
20158;DHT22;10239;56.820;24.416;2023-05-10T07:24:00;34.70;36.60
20158;DHT22;10239;56.820;24.416;2023-05-10T07:26:28;34.70;39.00
20158;DHT22;10239;56.820;24.416;2023-05-10T07:28:56;35.00;36.80
20158;DHT22;10239;56.820;24.416;2023-05-10T07:31:24;35.30;36.10
20158;DHT22;10239;56.820;24.416;2023-05-10T07:33:51;34.80;36.30
20158;DHT22;10239;56.820;24.416;2023-05-10T07:36:19;33.90;36.10
20158;DHT22;10239;56.820;24.416;2023-05-10T07:38:46;33.60;36.90
20158;DHT22;10239;56.820;24.416;2023-05-10T07:41:14;34.60;37.00
20158;DHT22;10239;56.820;24.416;2023-05-10T07:43:41;35.00;40.00
20158;DHT22;10239;56.820;24.416;2023-05-10T07:46:09;35.00;38.50
20158;DHT22;10239;56.820;24.416;2023-05-10T07:48:37;35.10;36.90
20158;DHT22;10239;56.820;24.416;2023-05-10T07:51:05;35.30;38.20
20158;DHT22;10239;56.820;24.416;2023-05-10T07:53:34;35.40;36.10
20158;DHT22;10239;56.820;24.416;2023-05-10T07:58:49;35.20;38.70
20158;DHT22;10239;56.820;24.416;2023-05-10T08:01:17;34.40;35.40
20158;DHT22;10239;56.820;24.416;2023-05-10T08:03:45;34.60;39.40
20158;DHT22;10239;56.820;24.416;2023-05-10T08:06:13;34.40;37.90
20158;DHT22;10239;56.820;24.416;2023-05-10T08:08:41;34.50;39.60
20158;DHT22;10239;56.820;24.416;2023-05-10T08:11:09;35.00;37.90
20158;DHT22;10239;56.820;24.416;2023-05-10T08:13:37;35.10;35.60
20158;DHT22;10239;56.820;24.416;2023-05-10T08:16:05;35.30;36.10
20158;DHT22;10239;56.820;24.416;2023-05-10T08:18:32;35.50;37.10
20158;DHT22;10239;56.820;24.416;2023-05-10T08:21:00;34.90;33.20
20158;DHT22;10239;56.820;24.416;2023-05-10T08:23:27;34.40;33.20
20158;DHT22;10239;56.820;24.416;2023-05-10T08:25:55;33.80;32.50
20158;DHT22;10239;56.820;24.416;2023-05-10T08:28:25;34.00;36.00
20158;DHT22;10239;56.820;24.416;2023-05-10T08:30:53;34.80;34.00
20158;DHT22;10239;56.820;24.416;2023-05-10T08:33:21;34.50;38.70
20158;DHT22;10239;56.820;24.416;2023-05-10T08:35:49;35.00;37.20
20158;DHT22;10239;56.820;24.416;2023-05-10T08:38:18;35.30;40.20
20158;DHT22;10239;56.820;24.416;2023-05-10T08:40:48;34.90;33.20
20158;DHT22;10239;56.820;24.416;2023-05-10T08:43:16;34.50;31.00
20158;DHT22;10239;56.820;24.416;2023-05-10T08:45:45;34.50;31.90
20158;DHT22;10239;56.820;24.416;2023-05-10T08:48:14;32.90;32.40
20158;DHT22;10239;56.820;24.416;2023-05-10T08:50:42;32.40;33.30
20158;DHT22;10239;56.820;24.416;2023-05-10T08:53:13;31.40;34.00
20158;DHT22;10239;56.820;24.416;2023-05-10T08:55:42;31.20;33.00
20158;DHT22;10239;56.820;24.416;2023-05-10T08:58:09;32.10;34.70
20158;DHT22;10239;56.820;24.416;2023-05-10T09:00:37;32.90;39.00
20158;DHT22;10239;56.820;24.416;2023-05-10T09:03:05;33.50;35.50
20158;DHT22;10239;56.820;24.416;2023-05-10T09:05:33;33.40;34.40
20158;DHT22;10239;56.820;24.416;2023-05-10T09:08:00;33.70;35.20
20158;DHT22;10239;56.820;24.416;2023-05-10T09:10:29;33.50;33.60
20158;DHT22;10239;56.820;24.416;2023-05-10T09:12:57;32.70;35.80
20158;DHT22;10239;56.820;24.416;2023-05-10T09:15:25;33.10;36.00
20158;DHT22;10239;56.820;24.416;2023-05-10T09:17:54;31.50;34.50
20158;DHT22;10239;56.820;24.416;2023-05-10T09:20:22;31.30;35.30
20158;DHT22;10239;56.820;24.416;2023-05-10T09:22:49;30.80;37.30
20158;DHT22;10239;56.820;24.416;2023-05-10T09:25:17;31.20;34.50
20158;DHT22;10239;56.820;24.416;2023-05-10T09:27:46;32.20;40.50
20158;DHT22;10239;56.820;24.416;2023-05-10T09:30:32;32.90;35.30
20158;DHT22;10239;56.820;24.416;2023-05-10T09:33:00;33.40;37.80
20158;DHT22;10239;56.820;24.416;2023-05-10T09:35:30;33.70;38.10
20158;DHT22;10239;56.820;24.416;2023-05-10T09:38:00;33.60;35.70
20158;DHT22;10239;56.820;24.416;2023-05-10T09:40:29;33.10;35.40
20158;DHT22;10239;56.820;24.416;2023-05-10T09:42:58;32.30;37.80
20158;DHT22;10239;56.820;24.416;2023-05-10T09:45:30;32.90;39.90
20158;DHT22;10239;56.820;24.416;2023-05-10T09:47:59;33.20;38.10
20158;DHT22;10239;56.820;24.416;2023-05-10T09:50:27;33.60;35.90
20158;DHT22;10239;56.820;24.416;2023-05-10T09:52:59;33.90;38.10
20158;DHT22;10239;56.820;24.416;2023-05-10T09:55:41;34.10;39.00
20158;DHT22;10239;56.820;24.416;2023-05-10T09:58:08;33.30;36.90
20158;DHT22;10239;56.820;24.416;2023-05-10T10:00:40;32.80;34.50
20158;DHT22;10239;56.820;24.416;2023-05-10T10:03:20;33.30;36.80
20158;DHT22;10239;56.820;24.416;2023-05-10T10:05:48;32.10;33.40
20158;DHT22;10239;56.820;24.416;2023-05-10T10:08:16;31.40;36.40
20158;DHT22;10239;56.820;24.416;2023-05-10T10:10:44;32.10;36.10
20158;DHT22;10239;56.820;24.416;2023-05-10T10:13:13;31.70;35.20
20158;DHT22;10239;56.820;24.416;2023-05-10T10:15:42;31.20;38.80
20158;DHT22;10239;56.820;24.416;2023-05-10T10:18:14;31.20;34.80
20158;DHT22;10239;56.820;24.416;2023-05-10T10:20:45;31.60;38.60
20158;DHT22;10239;56.820;24.416;2023-05-10T10:23:13;32.20;39.10
20158;DHT22;10239;56.820;24.416;2023-05-10T10:25:45;32.50;37.40
20158;DHT22;10239;56.820;24.416;2023-05-10T10:28:39;32.60;35.90
20158;DHT22;10239;56.820;24.416;2023-05-10T10:31:51;31.50;34.30
20158;DHT22;10239;56.820;24.416;2023-05-10T10:34:25;31.20;37.70
20158;DHT22;10239;56.820;24.416;2023-05-10T10:36:55;31.40;37.00
20158;DHT22;10239;56.820;24.416;2023-05-10T10:39:26;31.60;38.30
20158;DHT22;10239;56.820;24.416;2023-05-10T10:41:56;32.10;38.10
20158;DHT22;10239;56.820;24.416;2023-05-10T10:52:30;31.70;35.40
20158;DHT22;10239;56.820;24.416;2023-05-10T10:55:17;31.50;38.70
20158;DHT22;10239;56.820;24.416;2023-05-10T10:57:53;31.30;36.40
20158;DHT22;10239;56.820;24.416;2023-05-10T11:00:35;30.40;36.50
20158;DHT22;10239;56.820;24.416;2023-05-10T11:03:09;30.10;38.30
20158;DHT22;10239;56.820;24.416;2023-05-10T11:05:50;29.80;42.70
20158;DHT22;10239;56.820;24.416;2023-05-10T11:08:29;29.80;37.80
20158;DHT22;10239;56.820;24.416;2023-05-10T11:13:37;29.60;39.60
20158;DHT22;10239;56.820;24.416;2023-05-10T11:18:40;29.40;37.60
20158;DHT22;10239;56.820;24.416;2023-05-10T11:21:18;29.20;37.60
20158;DHT22;10239;56.820;24.416;2023-05-10T11:23:54;28.80;39.80
20158;DHT22;10239;56.820;24.416;2023-05-10T11:26:31;28.60;40.80
20158;DHT22;10239;56.820;24.416;2023-05-10T11:28:59;28.20;42.00
20158;DHT22;10239;56.820;24.416;2023-05-10T11:31:29;27.50;40.50
20158;DHT22;10239;56.820;24.416;2023-05-10T11:33:58;26.80;40.90
20158;DHT22;10239;56.820;24.416;2023-05-10T11:36:28;26.70;41.60
20158;DHT22;10239;56.820;24.416;2023-05-10T11:38:56;26.30;40.40
20158;DHT22;10239;56.820;24.416;2023-05-10T11:41:25;26.10;41.70
20158;DHT22;10239;56.820;24.416;2023-05-10T11:43:54;25.80;42.90
20158;DHT22;10239;56.820;24.416;2023-05-10T11:46:23;25.80;42.00
20158;DHT22;10239;56.820;24.416;2023-05-10T11:48:52;25.70;43.30
20158;DHT22;10239;56.820;24.416;2023-05-10T11:51:22;25.60;42.50
20158;DHT22;10239;56.820;24.416;2023-05-10T11:53:52;25.40;41.60
20158;DHT22;10239;56.820;24.416;2023-05-10T11:56:20;25.30;41.60
20158;DHT22;10239;56.820;24.416;2023-05-10T11:58:56;25.20;43.80
20158;DHT22;10239;56.820;24.416;2023-05-10T12:01:25;25.70;45.30
20158;DHT22;10239;56.820;24.416;2023-05-10T12:03:56;26.20;45.80
20158;DHT22;10239;56.820;24.416;2023-05-10T12:06:29;26.80;43.90
20158;DHT22;10239;56.820;24.416;2023-05-10T12:08:59;27.10;43.60
20158;DHT22;10239;56.820;24.416;2023-05-10T12:11:33;27.40;41.80
20158;DHT22;10239;56.820;24.416;2023-05-10T12:14:04;27.50;43.60
20158;DHT22;10239;56.820;24.416;2023-05-10T12:16:32;27.60;42.80
20158;DHT22;10239;56.820;24.416;2023-05-10T12:19:00;27.70;39.50
20158;DHT22;10239;56.820;24.416;2023-05-10T12:21:29;27.50;39.30
20158;DHT22;10239;56.820;24.416;2023-05-10T12:24:04;27.50;40.30
20158;DHT22;10239;56.820;24.416;2023-05-10T12:26:32;27.80;41.90
20158;DHT22;10239;56.820;24.416;2023-05-10T12:29:17;28.00;44.80
20158;DHT22;10239;56.820;24.416;2023-05-10T12:31:53;27.80;40.60
20158;DHT22;10239;56.820;24.416;2023-05-10T12:34:34;27.10;40.30
20158;DHT22;10239;56.820;24.416;2023-05-10T12:37:03;26.60;40.70
20158;DHT22;10239;56.820;24.416;2023-05-10T12:39:45;26.20;41.60
20158;DHT22;10239;56.820;24.416;2023-05-10T12:42:13;26.40;40.00
20158;DHT22;10239;56.820;24.416;2023-05-10T12:44:40;26.10;41.90
20158;DHT22;10239;56.820;24.416;2023-05-10T12:47:07;26.20;41.40
20158;DHT22;10239;56.820;24.416;2023-05-10T12:49:35;25.90;40.80
20158;DHT22;10239;56.820;24.416;2023-05-10T12:52:02;25.80;43.20
20158;DHT22;10239;56.820;24.416;2023-05-10T12:54:29;25.80;42.70
20158;DHT22;10239;56.820;24.416;2023-05-10T12:56:57;26.00;46.10
20158;DHT22;10239;56.820;24.416;2023-05-10T12:59:24;26.20;43.20
20158;DHT22;10239;56.820;24.416;2023-05-10T13:01:52;26.30;43.90
20158;DHT22;10239;56.820;24.416;2023-05-10T13:04:28;26.30;41.50
20158;DHT22;10239;56.820;24.416;2023-05-10T13:07:09;26.10;41.10
20158;DHT22;10239;56.820;24.416;2023-05-10T13:09:37;25.70;43.90
20158;DHT22;10239;56.820;24.416;2023-05-10T13:12:04;25.50;45.60
20158;DHT22;10239;56.820;24.416;2023-05-10T13:14:35;25.50;42.60
20158;DHT22;10239;56.820;24.416;2023-05-10T13:17:02;25.40;41.60
20158;DHT22;10239;56.820;24.416;2023-05-10T13:19:29;25.40;43.20
20158;DHT22;10239;56.820;24.416;2023-05-10T13:21:57;25.40;43.60
20158;DHT22;10239;56.820;24.416;2023-05-10T13:24:25;25.20;42.30
20158;DHT22;10239;56.820;24.416;2023-05-10T13:26:52;25.10;44.00
20158;DHT22;10239;56.820;24.416;2023-05-10T13:29:19;25.20;45.00
20158;DHT22;10239;56.820;24.416;2023-05-10T13:31:48;25.20;43.40
20158;DHT22;10239;56.820;24.416;2023-05-10T13:34:15;25.40;44.50
20158;DHT22;10239;56.820;24.416;2023-05-10T13:36:43;25.40;43.40
20158;DHT22;10239;56.820;24.416;2023-05-10T13:39:10;25.30;41.60
20158;DHT22;10239;56.820;24.416;2023-05-10T13:41:37;25.20;41.20
20158;DHT22;10239;56.820;24.416;2023-05-10T13:44:07;25.20;43.30
20158;DHT22;10239;56.820;24.416;2023-05-10T13:46:34;25.30;42.80
20158;DHT22;10239;56.820;24.416;2023-05-10T13:49:02;25.10;43.40
20158;DHT22;10239;56.820;24.416;2023-05-10T13:51:29;24.90;44.30
20158;DHT22;10239;56.820;24.416;2023-05-10T13:53:58;25.00;44.00
20158;DHT22;10239;56.820;24.416;2023-05-10T13:56:25;25.00;42.80
20158;DHT22;10239;56.820;24.416;2023-05-10T13:58:53;24.90;43.40
20158;DHT22;10239;56.820;24.416;2023-05-10T14:01:21;25.10;42.00
20158;DHT22;10239;56.820;24.416;2023-05-10T14:03:48;25.20;45.50
20158;DHT22;10239;56.820;24.416;2023-05-10T14:06:16;25.40;43.00
20158;DHT22;10239;56.820;24.416;2023-05-10T14:08:44;25.20;42.90
20158;DHT22;10239;56.820;24.416;2023-05-10T14:11:11;24.90;43.10
20158;DHT22;10239;56.820;24.416;2023-05-10T14:13:38;24.80;43.40
20158;DHT22;10239;56.820;24.416;2023-05-10T14:16:06;24.80;44.30
20158;DHT22;10239;56.820;24.416;2023-05-10T14:18:33;24.80;44.00
20158;DHT22;10239;56.820;24.416;2023-05-10T14:21:02;24.70;44.00
20158;DHT22;10239;56.820;24.416;2023-05-10T14:23:30;24.60;43.60
20158;DHT22;10239;56.820;24.416;2023-05-10T14:25:57;24.70;44.00
20158;DHT22;10239;56.820;24.416;2023-05-10T14:28:25;24.70;44.70
20158;DHT22;10239;56.820;24.416;2023-05-10T14:30:52;24.80;45.10
20158;DHT22;10239;56.820;24.416;2023-05-10T14:33:19;24.90;43.80
20158;DHT22;10239;56.820;24.416;2023-05-10T14:35:48;24.70;44.80
20158;DHT22;10239;56.820;24.416;2023-05-10T14:38:15;24.30;45.60
20158;DHT22;10239;56.820;24.416;2023-05-10T14:40:42;24.40;47.00
20158;DHT22;10239;56.820;24.416;2023-05-10T14:43:10;24.60;45.80
20158;DHT22;10239;56.820;24.416;2023-05-10T14:45:37;24.60;46.40
20158;DHT22;10239;56.820;24.416;2023-05-10T14:48:04;24.50;45.10
20158;DHT22;10239;56.820;24.416;2023-05-10T14:50:32;24.50;45.80
20158;DHT22;10239;56.820;24.416;2023-05-10T14:53:03;24.40;46.10
20158;DHT22;10239;56.820;24.416;2023-05-10T14:55:30;24.20;46.50
20158;DHT22;10239;56.820;24.416;2023-05-10T14:57:58;24.20;47.90
20158;DHT22;10239;56.820;24.416;2023-05-10T15:00:26;24.10;44.90
20158;DHT22;10239;56.820;24.416;2023-05-10T15:02:55;23.90;46.20
20158;DHT22;10239;56.820;24.416;2023-05-10T15:05:26;23.90;47.30
20158;DHT22;10239;56.820;24.416;2023-05-10T15:07:54;23.70;46.00
20158;DHT22;10239;56.820;24.416;2023-05-10T15:10:22;23.60;45.80
20158;DHT22;10239;56.820;24.416;2023-05-10T15:12:50;23.40;46.30
20158;DHT22;10239;56.820;24.416;2023-05-10T15:15:17;23.30;46.50
20158;DHT22;10239;56.820;24.416;2023-05-10T15:17:45;23.40;47.20
20158;DHT22;10239;56.820;24.416;2023-05-10T15:20:13;23.50;48.10
20158;DHT22;10239;56.820;24.416;2023-05-10T15:22:41;23.60;48.60
20158;DHT22;10239;56.820;24.416;2023-05-10T15:25:08;23.70;49.00
20158;DHT22;10239;56.820;24.416;2023-05-10T15:27:36;23.70;49.00
20158;DHT22;10239;56.820;24.416;2023-05-10T15:30:05;23.70;51.00
20158;DHT22;10239;56.820;24.416;2023-05-10T15:32:32;23.80;50.30
20158;DHT22;10239;56.820;24.416;2023-05-10T15:34:59;23.70;48.70
20158;DHT22;10239;56.820;24.416;2023-05-10T15:37:27;23.60;48.60
20158;DHT22;10239;56.820;24.416;2023-05-10T15:39:54;23.30;46.60
20158;DHT22;10239;56.820;24.416;2023-05-10T15:42:30;23.10;47.80
20158;DHT22;10239;56.820;24.416;2023-05-10T15:44:58;23.00;49.50
20158;DHT22;10239;56.820;24.416;2023-05-10T15:47:26;23.10;50.20
20158;DHT22;10239;56.820;24.416;2023-05-10T15:49:54;23.10;49.70
20158;DHT22;10239;56.820;24.416;2023-05-10T15:52:21;23.20;51.50
20158;DHT22;10239;56.820;24.416;2023-05-10T15:54:50;23.30;50.90
20158;DHT22;10239;56.820;24.416;2023-05-10T15:57:18;23.20;49.90
20158;DHT22;10239;56.820;24.416;2023-05-10T15:59:45;23.20;51.00
20158;DHT22;10239;56.820;24.416;2023-05-10T16:02:13;23.00;49.90
20158;DHT22;10239;56.820;24.416;2023-05-10T16:04:41;22.90;51.10